createdAt,value
2022-11-05T00:03:00.268Z,99270.18
2022-11-05T00:08:24.366Z,99266.11
2022-11-05T00:13:47.543Z,99261.50
2022-11-05T00:19:06.806Z,99257.50
2022-11-05T00:24:29.185Z,99249.59
2022-11-05T00:29:32.599Z,99238.80
2022-11-05T00:34:36.123Z,99223.92
2022-11-05T00:39:39.527Z,99226.52
2022-11-05T00:45:01.286Z,99222.98
2022-11-05T00:50:05.194Z,99219.77
2022-11-05T00:55:08.917Z,99215.67
2022-11-05T01:00:12.945Z,99210.06
2022-11-05T01:05:16.562Z,99206.42
2022-11-05T01:10:20.670Z,99200.11
2022-11-05T01:15:24.105Z,99195.34
2022-11-05T01:20:27.421Z,99190.39
2022-11-05T01:25:30.832Z,99185.78
2022-11-05T01:30:34.143Z,99182.77
2022-11-05T01:35:39.498Z,99175.19
2022-11-05T01:40:43.427Z,99173.30
2022-11-05T01:45:51.412Z,99170.66
2022-11-05T01:51:12.161Z,99172.71
2022-11-05T01:56:23.360Z,99164.29
2022-11-05T02:01:27.926Z,99158.44
2022-11-05T02:06:35.511Z,99156.02
2022-11-05T02:11:39.127Z,99165.88
2022-11-05T02:17:00.566Z,99172.80
2022-11-05T02:22:25.685Z,99168.30
2022-11-05T02:27:59.819Z,99169.49
2022-11-05T02:33:22.278Z,99164.64
2022-11-05T02:38:25.591Z,99165.64
2022-11-05T02:43:41.702Z,99161.59
2022-11-05T02:48:59.474Z,99161.86
2022-11-05T02:54:10.852Z,99159.27
2022-11-05T02:59:14.468Z,99158.84
2022-11-05T03:04:21.982Z,99170.27
2022-11-05T03:09:31.229Z,99181.89
2022-11-05T03:14:52.769Z,99184.14
2022-11-05T03:20:18.094Z,99189.17
2022-11-05T03:25:24.530Z,99186.70
2022-11-05T03:30:27.789Z,99180.60
2022-11-05T03:35:37.959Z,99182.25
2022-11-05T03:40:43.111Z,99170.82
2022-11-05T03:46:09.978Z,99163.55
2022-11-05T03:51:25.882Z,99159.98
2022-11-05T03:56:40.706Z,99165.56
2022-11-05T04:01:44.778Z,99174.23
2022-11-05T04:07:06.634Z,99167.89
2022-11-05T04:12:30.029Z,99173.27
2022-11-05T04:17:33.432Z,99173.48
2022-11-05T04:22:55.888Z,99159.19
2022-11-05T04:28:00.949Z,99159.45
2022-11-05T04:33:15.729Z,99162.58
2022-11-05T04:38:20.364Z,99163.67
2022-11-05T04:43:24.208Z,99166.95
2022-11-05T04:48:27.600Z,99158.20
2022-11-05T04:53:31.746Z,99179.46
2022-11-05T04:58:39.567Z,99192.25
2022-11-05T05:03:43.165Z,99196.08
2022-11-05T05:08:51.071Z,99194.56
2022-11-05T05:13:54.390Z,99201.16
2022-11-05T05:18:57.704Z,99211.46
2022-11-05T05:24:01.319Z,99223.14
2022-11-05T05:29:06.100Z,99239.14
2022-11-05T05:34:12.278Z,99243.82
2022-11-05T05:39:15.556Z,99249.50
2022-11-05T05:44:19.275Z,99239.39
2022-11-05T05:49:22.688Z,99239.40
2022-11-05T05:54:31.744Z,99241.23
2022-11-05T05:59:36.272Z,99247.75
2022-11-05T06:04:39.695Z,99256.20
2022-11-05T06:09:43.098Z,99265.67
2022-11-05T06:14:46.410Z,99272.81
2022-11-05T06:19:49.927Z,99279.42
2022-11-05T06:24:53.339Z,99279.44
2022-11-05T06:29:56.751Z,99276.88
2022-11-05T06:35:00.266Z,99279.73
2022-11-05T06:40:03.885Z,99285.66
2022-11-05T06:45:08.231Z,99300.27
2022-11-05T06:50:11.941Z,99307.26
2022-11-05T06:55:15.458Z,99306.48
2022-11-05T07:00:19.484Z,99314.33
2022-11-05T07:05:23.890Z,99323.58
2022-11-05T07:10:27.231Z,99323.81
2022-11-05T07:15:30.749Z,99331.80
2022-11-05T07:20:34.648Z,99336.56
2022-11-05T07:25:39.113Z,99343.77
2022-11-05T07:30:42.417Z,99351.49
2022-11-05T07:35:45.830Z,99350.77
2022-11-05T07:40:49.145Z,99351.23
2022-11-05T07:45:52.553Z,99364.52
2022-11-05T07:50:55.968Z,99370.00
2022-11-05T07:55:59.482Z,99374.39
2022-11-05T08:01:03.297Z,99386.88
2022-11-05T08:06:06.822Z,99392.54
2022-11-05T08:11:12.443Z,99395.66
2022-11-05T08:16:16.517Z,99405.22
2022-11-05T08:21:20.140Z,99407.98
2022-11-05T08:26:23.447Z,99409.04
2022-11-05T08:31:28.086Z,99414.70
2022-11-05T08:36:31.399Z,99422.71
2022-11-05T08:41:34.814Z,99432.20
2022-11-05T08:46:41.512Z,99434.95
2022-11-05T08:51:45.327Z,99436.98
2022-11-05T08:56:48.944Z,99450.05
2022-11-05T09:01:53.471Z,99447.43
2022-11-05T09:06:56.897Z,99455.20
2022-11-05T09:12:15.622Z,99463.55
2022-11-05T09:17:20.989Z,99465.89
2022-11-05T09:22:24.235Z,99470.67
2022-11-05T09:27:27.646Z,99471.42
2022-11-05T09:32:32.494Z,99476.81
2022-11-05T09:37:37.551Z,99488.91
2022-11-05T09:42:46.956Z,99499.02
2022-11-05T09:47:54.403Z,99493.86
2022-11-05T09:52:58.743Z,99499.80
2022-11-05T09:58:04.001Z,99508.24
2022-11-05T10:03:13.788Z,99513.14
2022-11-05T10:08:22.602Z,99516.31
2022-11-05T10:13:33.799Z,99526.16
2022-11-05T10:18:41.510Z,99532.85
2022-11-05T10:23:48.404Z,99528.08
2022-11-05T10:28:51.926Z,99534.02
2022-11-05T10:34:02.740Z,99544.23
2022-11-05T10:39:15.027Z,99553.05
2022-11-05T10:44:45.443Z,99561.15
2022-11-05T10:50:06.931Z,99563.88
2022-11-05T10:55:24.460Z,99574.02
2022-11-05T11:00:28.688Z,99587.10
2022-11-05T11:05:39.780Z,99588.30
2022-11-05T11:10:59.120Z,99603.45
2022-11-05T11:16:24.292Z,99599.09
2022-11-05T11:21:29.585Z,99607.64
2022-11-05T11:26:37.674Z,99610.02
2022-11-05T11:31:42.211Z,99621.52
2022-11-05T11:36:48.495Z,99629.05
2022-11-05T11:41:58.952Z,99637.67
2022-11-05T11:47:08.834Z,99637.85
2022-11-05T11:52:16.036Z,99633.14
2022-11-05T11:57:29.587Z,99627.80
2022-11-05T12:03:01.350Z,99630.35
2022-11-05T12:08:23.011Z,99647.48
2022-11-05T12:13:34.611Z,99646.91
2022-11-05T12:18:56.251Z,99639.77
2022-11-05T12:24:08.777Z,99640.23
2022-11-05T12:29:51.210Z,99642.06
2022-11-05T12:35:35.989Z,99647.84
2022-11-05T12:40:57.323Z,99651.96
2022-11-05T12:46:25.721Z,99661.14
2022-11-05T12:51:41.115Z,99666.56
2022-11-05T12:57:04.394Z,99668.45
2022-11-05T13:02:14.068Z,99672.72
2022-11-05T13:07:24.534Z,99685.65
2022-11-05T13:12:32.662Z,99691.33
2022-11-05T13:18:15.187Z,99692.73
2022-11-05T13:23:28.738Z,99695.80
2022-11-05T13:28:44.033Z,99707.87
2022-11-05T13:33:50.879Z,99714.27
2022-11-05T13:39:09.498Z,99723.16
2022-11-05T13:44:43.423Z,99731.77
2022-11-05T13:49:52.466Z,99745.05
2022-11-05T13:55:15.544Z,99754.00
2022-11-05T14:00:28.887Z,99762.43
2022-11-05T14:05:35.063Z,99763.98
2022-11-05T14:10:57.010Z,99767.86
2022-11-05T14:16:07.802Z,99781.27
2022-11-05T14:21:26.475Z,99793.58
2022-11-05T14:26:34.493Z,99797.57
2022-11-05T14:32:08.446Z,99801.88
2022-11-05T14:37:12.971Z,99812.09
2022-11-05T14:42:22.410Z,99817.36
2022-11-05T14:47:29.570Z,99819.27
2022-11-05T14:52:33.742Z,99825.52
2022-11-05T14:57:42.894Z,99819.48
2022-11-05T15:03:01.601Z,99824.02
2022-11-05T15:08:24.945Z,99823.39
2022-11-05T15:13:36.856Z,99823.02
2022-11-05T15:18:47.504Z,99824.15
2022-11-05T15:23:56.626Z,99835.16
2022-11-05T15:29:01.841Z,99834.67
2022-11-05T15:34:16.833Z,99841.87
2022-11-05T15:39:29.780Z,99843.08
2022-11-05T15:44:40.064Z,99838.47
2022-11-05T15:49:47.034Z,99839.59
2022-11-05T15:55:15.127Z,99846.61
2022-11-05T16:00:26.939Z,99847.98
2022-11-05T16:05:33.934Z,99854.48
2022-11-05T16:10:39.092Z,99863.10
2022-11-05T16:15:54.201Z,99873.80
2022-11-05T16:21:09.670Z,99883.88
2022-11-05T16:31:57.799Z,99921.69
2022-11-05T16:37:01.281Z,99927.00
2022-11-05T16:42:22.719Z,99933.63
2022-11-05T16:47:26.746Z,99930.09
2022-11-05T16:52:30.154Z,99934.70
2022-11-05T16:57:33.675Z,99937.63
2022-11-05T17:02:37.142Z,99948.38
2022-11-05T17:07:41.628Z,99956.52
2022-11-05T17:12:45.344Z,99959.68
2022-11-05T17:17:49.784Z,99964.75
2022-11-05T17:22:53.403Z,99964.86
2022-11-05T17:27:57.535Z,99971.22
2022-11-05T17:33:00.778Z,99977.21
2022-11-05T17:38:04.151Z,99982.73
2022-11-05T17:43:07.773Z,99993.75
2022-11-05T17:48:12.104Z,100003.48
2022-11-05T17:53:16.167Z,100007.61
2022-11-05T17:58:19.443Z,100013.73
2022-11-05T18:03:22.751Z,100020.93
2022-11-05T18:08:26.780Z,100022.59
2022-11-05T18:13:29.989Z,100030.95
2022-11-05T18:18:33.521Z,100032.88
2022-11-05T18:23:36.713Z,100032.75
2022-11-05T18:28:40.643Z,100040.31
2022-11-05T18:33:44.359Z,100048.05
2022-11-05T18:38:48.486Z,100056.48
2022-11-05T18:43:52.212Z,100053.00
2022-11-05T18:48:55.419Z,100056.98
2022-11-05T18:53:59.954Z,100059.61
2022-11-05T18:59:34.566Z,100064.20
2022-11-05T19:04:27.378Z,100067.67
2022-11-05T19:09:30.882Z,100070.88
2022-11-05T19:14:35.784Z,100076.19
2022-11-05T19:19:39.179Z,100073.45
2022-11-05T19:24:42.536Z,100075.92
2022-11-05T19:29:47.036Z,100079.52
2022-11-05T19:34:50.713Z,100082.27
2022-11-05T19:39:54.759Z,100085.34
2022-11-05T19:45:06.832Z,100091.52
2022-11-05T19:50:20.341Z,100093.86
2022-11-05T20:02:37.095Z,100095.15
2022-11-05T20:07:41.308Z,100100.40
2022-11-05T20:12:48.926Z,100104.73
2022-11-05T20:17:53.805Z,100107.48
2022-11-05T20:22:57.902Z,100111.54
2022-11-05T20:28:01.210Z,100111.40
2022-11-05T20:33:04.621Z,100114.73
2022-11-05T20:38:11.104Z,100115.80
2022-11-05T20:43:15.032Z,100117.81
2022-11-05T20:48:18.444Z,100121.02
2022-11-05T20:53:22.575Z,100115.96
2022-11-05T20:58:25.885Z,100127.33
2022-11-05T21:03:29.710Z,100125.16
2022-11-05T21:08:33.746Z,100127.41
2022-11-05T21:13:37.455Z,100133.61
2022-11-05T21:18:40.972Z,100138.41
2022-11-05T21:23:45.035Z,100138.14
2022-11-05T21:28:48.412Z,100138.08
2022-11-05T21:33:55.123Z,100138.41
2022-11-05T21:38:58.932Z,100145.84
2022-11-05T21:44:04.488Z,100141.91
2022-11-05T21:49:08.022Z,100149.20
2022-11-05T21:54:30.565Z,100152.02
2022-11-05T21:59:49.240Z,100153.32
2022-11-05T22:04:55.089Z,100148.15
2022-11-05T22:09:58.827Z,100156.45
2022-11-05T22:15:02.550Z,100157.22
2022-11-05T22:20:06.882Z,100155.41
2022-11-05T22:25:10.193Z,100157.27
2022-11-05T22:30:14.819Z,100160.99
2022-11-05T22:35:18.046Z,100173.87
2022-11-05T22:40:24.021Z,100173.92
2022-11-05T22:45:27.737Z,100181.63
2022-11-05T22:50:31.048Z,100186.23
2022-11-05T22:55:39.886Z,100184.55
2022-11-05T23:00:43.302Z,100189.05
2022-11-05T23:05:46.716Z,100189.41
2022-11-05T23:11:08.868Z,100192.16
2022-11-05T23:16:31.224Z,100196.09
2022-11-05T23:21:52.967Z,100192.27
2022-11-05T23:26:58.120Z,100192.87
2022-11-05T23:32:20.477Z,100198.31
2022-11-05T23:37:45.192Z,100202.92
2022-11-05T23:43:07.649Z,100201.10
2022-11-05T23:48:37.789Z,100200.04
2022-11-05T23:53:41.719Z,100199.98
2022-11-05T23:58:44.925Z,100205.37
